createdAt,value
2022-12-13T00:03:56.446Z,18.20
2022-12-13T00:06:43.806Z,18.50
2022-12-13T00:09:29.547Z,18.58
2022-12-13T00:12:16.665Z,17.58
2022-12-13T00:15:02.612Z,19.25
2022-12-13T00:17:48.448Z,18.27
2022-12-13T00:20:33.858Z,18.17
2022-12-13T00:23:20.374Z,20.98
2022-12-13T00:26:09.759Z,19.17
2022-12-13T00:28:58.510Z,19.23
2022-12-13T00:31:58.525Z,20.13
2022-12-13T00:34:45.789Z,25.17
2022-12-13T00:37:31.492Z,24.90
2022-12-13T00:40:17.271Z,25.83
2022-12-13T00:43:03.093Z,25.80
2022-12-13T00:45:50.016Z,27.35
2022-12-13T00:48:36.023Z,30.83
2022-12-13T00:51:21.959Z,31.23
2022-12-13T00:54:08.007Z,33.17
2022-12-13T00:56:53.519Z,31.90
2022-12-13T00:59:38.943Z,33.50
2022-12-13T01:02:25.977Z,24.92
2022-12-13T01:05:12.714Z,25.13
2022-12-13T01:07:58.423Z,23.02
2022-12-13T01:10:45.134Z,20.77
2022-12-13T01:13:31.691Z,21.02
2022-12-13T01:16:18.680Z,19.25
2022-12-13T01:19:05.957Z,22.38
2022-12-13T01:21:54.759Z,21.00
2022-12-13T01:24:41.306Z,21.83
2022-12-13T01:27:27.022Z,20.35
2022-12-13T01:32:59.135Z,17.80
2022-12-13T01:44:50.851Z,16.20
2022-12-13T01:47:40.826Z,18.90
2022-12-13T01:56:08.659Z,16.75
2022-12-13T02:01:42.097Z,18.08
2022-12-13T02:04:31.871Z,18.50
2022-12-13T02:07:22.647Z,17.50
2022-12-13T02:10:10.794Z,16.55
2022-12-13T02:12:56.475Z,18.15
2022-12-13T02:15:48.429Z,17.20
2022-12-13T02:18:48.688Z,16.40
2022-12-13T02:21:47.114Z,17.13
2022-12-13T02:28:00.625Z,16.55
2022-12-13T02:30:51.949Z,14.45
2022-12-13T02:33:49.052Z,14.70
2022-12-13T02:36:41.582Z,16.42
2022-12-13T02:39:32.209Z,15.90
2022-12-13T02:45:20.095Z,15.43
2022-12-13T02:48:09.922Z,14.93
2022-12-13T02:50:58.736Z,15.68
2022-12-13T02:53:46.191Z,15.90
2022-12-13T02:56:32.067Z,16.73
2022-12-13T02:59:18.139Z,16.75
2022-12-13T03:02:12.515Z,16.38
2022-12-13T03:05:35.696Z,16.80
2022-12-13T03:08:24.390Z,14.95
2022-12-13T03:11:13.625Z,16.92
2022-12-13T03:14:02.345Z,16.75
2022-12-13T03:16:52.713Z,16.08
2022-12-13T03:19:38.491Z,16.55
2022-12-13T03:22:25.166Z,16.65
2022-12-13T03:25:10.636Z,15.15
2022-12-13T03:27:56.264Z,16.02
2022-12-13T03:33:33.380Z,15.70
2022-12-13T04:05:00.815Z,23.40
2022-12-13T04:27:21.361Z,14.20
2022-12-13T04:46:47.452Z,21.60
2022-12-13T04:49:33.697Z,16.17
2022-12-13T04:52:22.168Z,16.00
2022-12-13T04:55:09.532Z,14.50
2022-12-13T04:57:54.995Z,13.80
2022-12-13T05:00:41.042Z,15.43
2022-12-13T05:03:31.429Z,16.42
2022-12-13T05:06:27.466Z,14.50
2022-12-13T05:09:13.510Z,15.00
2022-12-13T05:12:01.143Z,22.05
2022-12-13T05:14:47.228Z,20.58
2022-12-13T05:17:33.132Z,18.00
2022-12-13T05:20:20.088Z,18.17
2022-12-13T05:25:51.966Z,17.42
2022-12-13T05:28:41.133Z,17.25
2022-12-13T05:31:27.344Z,18.00
2022-12-13T05:34:13.732Z,17.25
2022-12-13T05:37:01.080Z,17.60
2022-12-13T05:39:46.925Z,18.20
2022-12-13T05:42:32.687Z,17.05
2022-12-13T05:45:19.646Z,19.08
2022-12-13T05:48:06.135Z,17.85
2022-12-13T05:51:11.164Z,16.75
2022-12-13T05:53:58.869Z,32.70
2022-12-13T05:56:44.876Z,21.80
2022-12-13T06:05:09.893Z,20.70
2022-12-13T06:16:22.869Z,22.10
2022-12-13T07:17:32.990Z,20.00
2022-12-13T07:42:33.281Z,21.80
2022-12-13T07:56:27.034Z,37.70
2022-12-13T08:01:58.722Z,24.70
2022-12-13T08:04:54.675Z,24.80
2022-12-13T08:07:42.639Z,24.00
2022-12-13T08:21:53.812Z,21.80
2022-12-13T08:24:42.495Z,24.60
2022-12-13T08:27:28.432Z,23.85
2022-12-13T08:30:20.487Z,24.23
2022-12-13T08:33:09.294Z,23.48
2022-12-13T08:35:55.010Z,26.10
2022-12-13T08:46:59.061Z,24.35
2022-12-13T08:58:08.542Z,24.40
2022-12-13T09:03:41.026Z,26.00
2022-12-13T09:09:12.863Z,26.80
2022-12-13T09:29:11.142Z,25.30
2022-12-13T10:09:18.681Z,22.40
2022-12-13T10:29:10.749Z,21.90
2022-12-13T10:31:56.473Z,22.30
2022-12-13T10:34:42.304Z,23.30
2022-12-13T10:37:30.465Z,24.75
2022-12-13T10:40:34.343Z,24.40
2022-12-13T10:43:22.107Z,24.05
2022-12-13T10:46:25.377Z,26.63
2022-12-13T10:49:17.948Z,26.65
2022-12-13T10:52:04.377Z,27.10
2022-12-13T10:54:51.427Z,28.20
2022-12-13T10:57:38.724Z,28.17
2022-12-13T11:00:34.981Z,37.20
2022-12-13T11:03:31.121Z,39.60
2022-12-13T11:06:20.158Z,31.80
2022-12-13T11:09:23.349Z,27.58
2022-12-13T11:12:14.628Z,25.33
2022-12-13T11:15:06.305Z,24.80
2022-12-13T11:17:54.483Z,24.95
2022-12-13T11:20:54.069Z,25.02
2022-12-13T11:23:45.012Z,24.40
2022-12-13T11:26:33.689Z,24.90
2022-12-13T11:29:42.920Z,23.90
2022-12-13T11:32:42.642Z,22.15
2022-12-13T11:35:36.442Z,22.85
2022-12-13T11:38:30.682Z,22.48
2022-12-13T11:41:32.087Z,22.83
2022-12-13T11:44:25.563Z,24.15
2022-12-13T11:47:17.912Z,23.55
2022-12-13T11:50:20.484Z,23.08
2022-12-13T11:53:27.710Z,31.05
2022-12-13T11:56:21.792Z,26.23
2022-12-13T11:59:26.641Z,24.00
2022-12-13T12:02:20.278Z,23.67
2022-12-13T12:05:23.526Z,23.10
2022-12-13T12:08:33.347Z,24.50
2022-12-13T12:11:28.057Z,23.23
2022-12-13T12:14:20.014Z,24.25
2022-12-13T12:17:07.055Z,22.50
2022-12-13T12:19:54.767Z,22.92
2022-12-13T12:22:52.631Z,22.58
2022-12-13T12:25:47.705Z,23.40
2022-12-13T12:28:46.425Z,23.58
2022-12-13T12:31:50.738Z,21.75
2022-12-13T12:34:44.472Z,22.02
2022-12-13T12:37:40.286Z,21.42
2022-12-13T12:41:15.098Z,22.73
2022-12-13T12:44:01.537Z,22.10
2022-12-13T12:47:08.592Z,22.30
2022-12-13T12:50:13.248Z,20.02
2022-12-13T12:53:16.811Z,22.63
2022-12-13T12:56:16.251Z,20.13
2022-12-13T12:59:11.288Z,20.92
2022-12-13T13:02:03.302Z,20.08
2022-12-13T13:04:55.396Z,19.67
2022-12-13T13:07:51.361Z,20.35
2022-12-13T13:10:38.506Z,20.30
2022-12-13T13:13:36.986Z,21.13
2022-12-13T13:16:35.950Z,19.67
2022-12-13T13:19:41.679Z,20.58
2022-12-13T13:22:32.194Z,19.33
2022-12-13T13:25:31.120Z,19.80
2022-12-13T13:36:47.233Z,19.80
2022-12-13T13:40:01.021Z,20.00
2022-12-13T13:45:58.098Z,23.83
2022-12-13T13:48:58.661Z,22.45
2022-12-13T13:52:24.494Z,21.88
2022-12-13T13:55:41.842Z,21.30
2022-12-13T14:04:58.245Z,21.90
2022-12-13T14:08:20.335Z,21.17
2022-12-13T14:14:50.419Z,21.80
2022-12-13T14:18:21.556Z,21.23
2022-12-13T14:21:18.130Z,20.38
2022-12-13T14:29:58.387Z,20.80
2022-12-13T14:44:17.258Z,20.60
2022-12-13T14:58:18.941Z,21.25
2022-12-13T15:03:52.079Z,31.80
2022-12-13T15:06:38.267Z,30.70
2022-12-13T15:09:25.223Z,23.38
2022-12-13T15:12:24.633Z,19.52
2022-12-13T15:15:22.817Z,21.35
2022-12-13T15:18:18.422Z,18.55
2022-12-13T15:24:06.034Z,20.05
2022-12-13T15:29:47.269Z,19.40
2022-12-13T15:38:13.848Z,20.42
2022-12-13T15:41:17.148Z,20.55
2022-12-13T15:44:07.396Z,21.88
2022-12-13T15:47:01.496Z,22.80
2022-12-13T15:58:25.945Z,25.50
2022-12-13T16:01:25.892Z,23.90
2022-12-13T16:04:22.076Z,24.05
2022-12-13T16:49:57.464Z,19.60
2022-12-13T16:52:45.940Z,20.70
2022-12-13T16:55:32.898Z,20.92
2022-12-13T16:58:21.040Z,21.17
2022-12-13T17:01:09.689Z,21.05
2022-12-13T17:03:56.261Z,19.52
2022-12-13T17:06:43.321Z,19.70
2022-12-13T17:09:29.213Z,19.63
2022-12-13T17:12:15.945Z,18.83
2022-12-13T17:15:01.722Z,19.67
2022-12-13T17:17:48.602Z,20.00
2022-12-13T17:20:34.956Z,20.27
2022-12-13T17:23:21.088Z,21.27
2022-12-13T17:26:07.683Z,18.65
2022-12-13T17:28:54.763Z,19.60
2022-12-13T17:31:40.275Z,18.20
2022-12-13T17:34:25.881Z,18.45
2022-12-13T17:37:11.439Z,20.02
2022-12-13T17:39:56.904Z,19.10
2022-12-13T17:42:42.519Z,19.80
2022-12-13T17:45:29.527Z,19.40
2022-12-13T17:48:15.305Z,19.65
2022-12-13T17:51:01.151Z,18.75
2022-12-13T17:53:46.952Z,19.73
2022-12-13T17:56:32.588Z,19.88
2022-12-13T17:59:19.126Z,18.00
2022-12-13T18:02:07.109Z,18.55
2022-12-13T18:04:52.779Z,19.02
2022-12-13T18:07:38.534Z,17.98
2022-12-13T18:10:29.560Z,18.52
2022-12-13T18:13:16.167Z,18.42
2022-12-13T18:16:04.811Z,19.27
2022-12-13T18:18:54.768Z,20.42
2022-12-13T18:21:43.211Z,21.20
2022-12-13T18:24:29.085Z,22.08
2022-12-13T18:27:14.677Z,20.27
2022-12-13T18:30:00.346Z,19.95
2022-12-13T18:32:47.097Z,19.58
2022-12-13T18:35:34.341Z,20.60
2022-12-13T18:38:21.045Z,20.30
2022-12-13T18:41:07.509Z,20.15
2022-12-13T18:43:55.871Z,21.92
2022-12-13T18:46:46.780Z,22.98
2022-12-13T18:49:32.529Z,25.20
2022-12-13T18:52:19.788Z,23.25
2022-12-13T18:55:06.457Z,19.20
2022-12-13T18:57:52.624Z,19.08
2022-12-13T19:00:38.671Z,20.92
2022-12-13T19:03:25.621Z,20.40
2022-12-13T19:06:15.637Z,21.17
2022-12-13T19:09:03.158Z,20.75
2022-12-13T19:11:49.410Z,20.27
2022-12-13T19:14:35.421Z,20.13
2022-12-13T19:17:20.986Z,21.10
2022-12-13T19:20:07.697Z,23.45
2022-12-13T19:22:53.641Z,23.05
2022-12-13T19:25:41.000Z,21.77
2022-12-13T19:28:26.451Z,20.55
2022-12-13T19:31:13.802Z,21.80
2022-12-13T19:34:01.024Z,21.65
2022-12-13T19:36:46.545Z,22.92
2022-12-13T19:39:32.330Z,25.30
2022-12-13T19:42:22.315Z,23.35
2022-12-13T19:45:08.431Z,22.88
2022-12-13T19:47:53.887Z,23.35
2022-12-13T19:50:40.489Z,21.60
2022-12-13T19:53:26.628Z,22.15
2022-12-13T19:56:15.230Z,22.13
2022-12-13T19:59:02.672Z,22.48
2022-12-13T20:01:48.600Z,23.63
2022-12-13T20:04:34.629Z,20.65
2022-12-13T20:07:20.783Z,23.85
2022-12-13T20:10:07.336Z,22.02
2022-12-13T20:12:53.841Z,22.80
2022-12-13T20:15:46.585Z,20.35
2022-12-13T20:18:32.924Z,24.35
2022-12-13T20:21:18.284Z,22.70
2022-12-13T20:24:04.310Z,25.70
2022-12-13T20:26:50.033Z,23.17
2022-12-13T20:29:37.070Z,23.42
2022-12-13T20:32:24.386Z,23.33
2022-12-13T20:35:10.073Z,23.60
2022-12-13T20:37:55.832Z,22.52
2022-12-13T20:40:41.613Z,22.67
2022-12-13T20:43:28.436Z,21.25
2022-12-13T20:46:16.945Z,22.48
2022-12-13T20:49:08.733Z,21.30
2022-12-13T20:51:55.048Z,23.00
2022-12-13T20:54:40.911Z,21.02
2022-12-13T20:57:26.799Z,21.35
2022-12-13T21:00:14.396Z,23.42
2022-12-13T21:03:00.136Z,21.75
2022-12-13T21:05:50.345Z,20.60
2022-12-13T21:08:54.888Z,15.65
2022-12-13T21:11:42.987Z,21.52
2022-12-13T21:14:34.579Z,21.20
2022-12-13T21:17:20.939Z,20.92
2022-12-13T21:20:07.999Z,21.23
2022-12-13T21:22:55.349Z,20.45
2022-12-13T21:25:41.750Z,19.83
2022-12-13T21:28:27.960Z,21.00
2022-12-13T21:31:14.425Z,21.60
2022-12-13T21:34:01.872Z,20.67
2022-12-13T21:36:48.978Z,19.52
2022-12-13T21:39:36.008Z,19.58
2022-12-13T21:42:22.651Z,19.80
2022-12-13T21:45:08.425Z,18.95
2022-12-13T21:47:54.188Z,24.00
2022-12-13T21:50:39.555Z,20.17
2022-12-13T21:53:25.754Z,20.88
2022-12-13T21:56:34.131Z,28.60
2022-12-13T21:59:22.114Z,21.35
2022-12-13T22:02:16.174Z,17.65
2022-12-13T22:05:02.298Z,16.08
2022-12-13T22:07:48.137Z,15.85
2022-12-13T22:10:34.240Z,14.95
2022-12-13T22:13:21.134Z,15.68
2022-12-13T22:16:07.527Z,14.27
2022-12-13T22:18:54.084Z,14.73
2022-12-13T22:21:39.927Z,14.50
2022-12-13T22:24:25.682Z,15.30
2022-12-13T22:27:11.594Z,13.85
2022-12-13T22:29:59.025Z,14.93
2022-12-13T22:32:44.957Z,14.45
2022-12-13T22:35:30.407Z,13.57
2022-12-13T22:38:16.201Z,14.75
2022-12-13T22:41:01.907Z,14.75
2022-12-13T22:43:48.392Z,14.82
2022-12-13T22:46:35.415Z,15.73
2022-12-13T22:49:22.467Z,15.05
2022-12-13T22:52:08.909Z,13.77
2022-12-13T22:54:54.557Z,13.93
2022-12-13T22:57:40.310Z,13.68
2022-12-13T23:00:26.271Z,14.30
2022-12-13T23:03:13.574Z,14.20
2022-12-13T23:06:06.179Z,14.57
2022-12-13T23:08:53.965Z,13.80
2022-12-13T23:11:58.509Z,13.48
2022-12-13T23:14:44.066Z,13.38
2022-12-13T23:17:30.210Z,13.35
2022-12-13T23:20:17.498Z,12.27
2022-12-13T23:23:03.328Z,13.50
2022-12-13T23:25:48.962Z,12.35
2022-12-13T23:28:35.229Z,12.38
2022-12-13T23:31:21.585Z,12.65
2022-12-13T23:34:07.429Z,12.18
2022-12-13T23:36:54.124Z,12.98
2022-12-13T23:39:39.588Z,12.90
2022-12-13T23:42:28.358Z,11.82
2022-12-13T23:45:13.877Z,11.45
2022-12-13T23:48:00.362Z,12.05
2022-12-13T23:50:46.018Z,12.88
2022-12-13T23:53:34.512Z,11.63
2022-12-13T23:56:20.805Z,13.48
2022-12-13T23:59:06.423Z,12.23
